Latest Coastal Weather Observations for Lucinda

IDQ60701

Issued at 4:45 am EST Saturday 25 October 2014 (issued every 10 minutes, with the page automatically refreshed every 10 minutes)

About coastal observations | Map of coastal stations | Coastal observations for QLD | Marine services | Other Formats
Station Details ID: 032141 Name: LUCINDA POINT Lat: -18.52 Lon: 146.39 Height: 10.0 m
Data from the previous 72 hours. | See also: Recent months for locations in Queensland
Date/Time
EST
Temp

°C
Wind Pressure Rain
since 9am
mm
Weather Cloud Vis
km
Sea
Height
m
Swell
Dir
 
Speed
knots
Gust
knots
hPa Trend Height
m
Period
s
Dir
25/04:30am 23.9 E 12 15 1017.6 - 0.0 - - - - - - -
25/04:00am 23.8 E 11 15 1017.6 - 0.0 - - - - - - -
25/03:30am 23.7 ESE 12 18 1017.4 - 0.0 - - - - - - -
25/03:00am 23.6 ESE 12 16 1017.4 - 0.0 - - - - - - -
25/02:30am 23.7 ESE 12 16 1017.6 - 0.0 - - - - - - -
25/02:00am 23.6 ESE 10 13 1017.8 - 0.0 - - - - - - -
25/01:30am 23.6 ESE 11 16 1018.1 - 0.0 - - - - - - -
25/01:00am 23.8 ESE 12 17 1018.5 - 0.0 - - - - - - -
25/12:30am 23.8 ESE 13 19 1018.7 - 0.0 - - - - - - -
25/12:00am 23.8 ESE 13 19 1019.0 - 0.0 - - - - - - -
 
Date/Time
EST
Temp

°C
Wind Pressure Rain
since 9am
mm
Weather Cloud Vis
km
Sea
Height
m
Swell
Dir
 
Speed
knots
Gust
knots
hPa Trend Height
m
Period
s
Dir
24/11:30pm 23.8 ESE 13 19 1019.2 - 0.0 - - - - - - -
24/11:00pm 23.7 ESE 12 16 1019.6 - 0.0 - - - - - - -
24/10:30pm 23.7 ESE 11 15 1019.6 - 0.0 - - - - - - -
24/10:00pm 23.7 ESE 12 18 1019.6 - 0.0 - - - - - - -
24/09:30pm 23.8 E 10 14 1019.4 - 0.0 - - - - - - -
24/09:00pm 23.9 E 11 16 1019.2 - 0.0 - - - - - - -
24/08:30pm 23.8 ESE 10 16 1019.0 - 0.0 - - - - - - -
24/08:00pm 23.7 SE 8 13 1018.4 - 0.0 - - - - - - -
24/07:30pm 23.6 SE 7 12 1018.3 - 0.0 - - - - - - -
24/07:00pm 24.0 E 11 15 1017.9 - 0.0 - - - - - - -
24/06:30pm 23.6 ESE 9 14 1017.6 - 0.0 - - - - - - -
24/06:00pm 24.2 ESE 9 14 1017.4 - 0.0 - - - - - - -
24/05:30pm 24.5 ESE 10 15 1017.1 - 0.0 - - - - - - -
24/05:00pm 24.9 ESE 11 14 1017.0 - 0.0 - - - - - - -
24/04:30pm 25.4 SE 7 13 1016.8 - 0.0 - - - - - - -
24/04:00pm 25.1 ESE 8 12 1016.8 - 0.0 - - - - - - -
24/03:30pm 25.6 SE 7 13 1016.7 - 0.0 - - - - - - -
24/03:00pm 25.3 SE 7 11 1016.8 - 0.0 - - - - - - -
24/02:30pm 25.5 SE 7 13 1017.0 - 0.0 - - - - - - -
24/02:00pm 25.7 SE 8 12 1017.2 - 0.0 - - - - - - -
24/01:30pm 25.7 ESE 7 11 1017.6 - 0.0 - - - - - - -
24/01:00pm 25.4 SE 7 11 1017.8 - 0.0 - - - - - - -
24/12:30pm 25.3 SE 7 11 1018.3 - 0.0 - - - - - - -
24/12:00pm 25.3 SE 6 11 1018.7 - 0.0 - - - - - - -
24/11:30am 24.0 S 9 13 1019.0 - 0.0 - - - - - - -
24/11:00am 23.8 S 12 16 1019.2 - 0.0 - - - - - - -
24/10:30am 23.5 S 13 16 1019.5 - 0.0 - - - - - - -
24/10:00am 23.7 S 12 15 1019.5 - 0.0 - - - - - - -
24/09:30am 23.9 S 12 15 1019.7 - 0.0 - - - - - - -
24/09:00am 24.6 SSE 7 11 1019.8 - 0.0 - - - - - - -
24/08:30am 24.9 SE 7 12 1019.7 - 0.0 - - - - - - -
24/08:00am 25.0 ESE 10 15 1019.3 - 0.0 - - - - - - -
24/07:30am 24.9 SE 9 14 1019.1 - 0.0 - - - - - - -
24/07:00am 24.7 SE 10 15 1018.8 - 0.0 - - - - - - -
24/06:30am 23.9 SSE 6 10 1018.6 - 0.0 - - - - - - -
24/06:00am 23.8 SSE 7 13 1018.4 - 0.0 - - - - - - -
24/05:30am 23.5 SSE 8 13 1018.0 - 0.0 - - - - - - -
24/05:00am 23.5 SE 9 13 1017.7 - 0.0 - - - - - - -
24/04:30am 23.6 SE 8 15 1017.4 - 0.0 - - - - - - -
24/04:00am 23.6 SE 9 15 1017.3 - 0.0 - - - - - - -
24/03:30am 23.6 ESE 9 14 1017.1 - 0.0 - - - - - - -
24/03:00am 23.6 SE 10 15 1017.1 - 0.0 - - - - - - -
24/02:30am 23.6 SE 10 16 1017.2 - 0.0 - - - - - - -
24/02:00am 23.7 SE 10 16 1017.6 - 0.0 - - - - - - -
24/01:30am 23.8 ESE 10 20 1018.0 - 0.0 - - - - - - -
24/01:00am 23.7 ESE 11 18 1018.3 - 0.0 - - - - - - -
24/12:30am 23.7 SE 10 16 1018.7 - 0.0 - - - - - - -
24/12:00am 23.8 E 11 16 1019.0 - 0.0 - - - - - - -
 
Date/Time
EST
Temp

°C
Wind Pressure Rain
since 9am
mm
Weather Cloud Vis
km
Sea
Height
m
Swell
Dir
 
Speed
knots
Gust
knots
hPa Trend Height
m
Period
s
Dir
23/11:30pm 23.8 ESE 9 15 1019.1 - 0.0 - - - - - - -
23/11:00pm 23.9 ESE 10 17 1019.3 - 0.0 - - - - - - -
23/10:30pm 23.8 SE 7 11 1019.5 - 0.0 - - - - - - -
23/10:00pm 23.7 ESE 8 12 1019.2 - 0.0 - - - - - - -
23/09:30pm 23.9 ESE 10 15 1019.0 - 0.0 - - - - - - -
23/09:00pm 23.9 ESE 9 12 1018.8 - 0.0 - - - - - - -
23/08:30pm 23.8 ESE 7 11 1018.5 - 0.0 - - - - - - -
23/08:00pm 23.9 ESE 10 14 1018.2 - 0.0 - - - - - - -
23/07:30pm 23.8 ESE 12 16 1017.9 - 0.0 - - - - - - -
23/07:00pm 23.9 ESE 13 17 1017.5 - 0.0 - - - - - - -
23/06:30pm 24.1 ESE 12 16 1017.2 - 0.0 - - - - - - -
23/06:00pm 24.3 ESE 10 16 1016.8 - 0.0 - - - - - - -
23/05:30pm 24.7 ESE 9 15 1016.6 - 0.0 - - - - - - -
23/05:00pm 25.0 ESE 13 17 1015.9 - 0.0 - - - - - - -
23/04:30pm 24.9 ESE 13 18 1015.7 - 0.0 - - - - - - -
23/04:00pm 25.2 ESE 12 18 1015.7 - 0.0 - - - - - - -
23/03:30pm 25.3 ESE 11 16 1015.7 - 0.0 - - - - - - -
23/03:00pm 25.0 ESE 12 18 1015.9 - 0.0 - - - - - - -
23/02:30pm 24.7 E 13 17 1016.0 - 0.0 - - - - - - -
23/02:00pm 24.8 ESE 13 18 1016.3 - 0.0 - - - - - - -
23/01:30pm 24.6 ESE 12 16 1016.7 - 0.0 - - - - - - -
23/01:00pm 24.9 ESE 10 16 1017.2 - 0.0 - - - - - - -
23/12:30pm 24.8 ESE 10 15 1017.7 - 0.0 - - - - - - -
23/12:00pm 23.9 SSE 9 14 1018.3 - 0.0 - - - - - - -
23/11:30am 23.8 S 9 13 1018.7 - 0.0 - - - - - - -
23/11:00am 23.6 S 10 13 1018.9 - 0.0 - - - - - - -
23/10:30am 23.5 S 11 14 1019.2 - 0.0 - - - - - - -
23/10:00am 23.4 S 12 15 1019.4 - 0.0 - - - - - - -
23/09:30am 23.3 S 11 14 1019.5 - 0.0 - - - - - - -
23/09:00am 23.6 SSE 11 14 1019.5 - 1.4 - - - - - - -
23/08:30am 23.7 SSE 11 13 1019.3 - 1.4 - - - - - - -
23/08:00am 23.7 S 10 16 1019.2 - 1.4 - - - - - - -
23/07:30am 24.6 SE 9 15 1018.8 - 1.4 - - - - - - -
23/07:00am 23.7 SE 9 14 1018.5 - 1.4 - - - - - - -
23/06:30am 23.6 SE 9 17 1018.1 - 1.4 - - - - - - -
23/06:00am 23.3 ESE 10 16 1018.0 - 1.4 - - - - - - -
23/05:30am 23.3 SE 12 19 1017.8 - 1.4 - - - - - - -
23/05:00am 23.3 SSE 10 19 1017.5 - 1.4 - - - - - - -
23/04:30am 23.3 S 10 14 1017.2 - 1.4 - - - - - - -
23/04:00am 23.6 SE 11 17 1017.0 - 1.4 - - - - - - -
23/03:30am 23.5 SE 9 15 1017.0 - 1.4 - - - - - - -
23/03:00am 23.6 SE 9 16 1017.2 - 1.4 - - - - - - -
23/02:30am 23.6 SE 8 14 1017.6 - 1.4 - - - - - - -
23/02:00am 23.7 SE 9 14 1017.8 - 1.4 - - - - - - -
23/01:30am 23.7 SE 8 13 1018.3 - 1.4 - - - - - - -
23/01:00am 23.7 SE 8 13 1018.8 - 1.4 - - - - - - -
23/12:30am 23.8 SE 8 15 1019.1 - 1.4 - - - - - - -
23/12:00am 23.8 SE 8 14 1019.3 - 1.4 - - - - - - -
 
Date/Time
EST
Temp

°C
Wind Pressure Rain
since 9am
mm
Weather Cloud Vis
km
Sea
Height
m
Swell
Dir
 
Speed
knots
Gust
knots
hPa Trend Height
m
Period
s
Dir
22/11:30pm 23.9 ESE 9 14 1019.5 - 1.4 - - - - - - -
22/11:00pm 23.9 ESE 10 16 1019.8 - 1.4 - - - - - - -
22/10:30pm 24.1 SE 11 19 1019.8 - 1.4 - - - - - - -
22/10:00pm 24.3 ESE 12 18 1019.8 - 1.4 - - - - - - -
22/09:30pm 24.3 SE 12 20 1019.5 - 1.4 - - - - - - -
22/09:00pm 24.3 SW 11 15 1019.2 - 1.4 - - - - - - -
22/08:30pm 24.1 ESE 11 18 1019.1 - 1.4 - - - - - - -
22/08:00pm 24.3 ESE 12 21 1018.9 - 1.4 - - - - - - -
22/07:30pm 24.2 ESE 11 18 1018.7 - 1.4 - - - - - - -
22/07:00pm 24.0 ESE 12 19 1018.3 - 1.4 - - - - - - -
22/06:30pm 24.0 ESE 14 21 1018.1 - 1.4 - - - - - - -
22/06:00pm 24.3 ESE 16 21 1017.7 - 1.4 - - - - - - -
22/05:30pm 24.7 ESE 14 21 1017.7 - 1.4 - - - - - - -
22/05:00pm 24.9 ESE 11 16 1017.5 - 1.4 - - - - - - -
22/04:30pm 25.1 ESE 11 21 1017.5 - 1.4 - - - - - - -
22/04:00pm 25.1 SSE 9 16 1017.3 - 1.4 - - - - - - -
22/03:30pm 25.0 ESE 10 20 1017.4 - 1.4 - - - - - - -
22/03:00pm 24.7 ESE 13 19 1017.5 - 1.4 Rain - - - - - -
22/02:30pm 21.9 E 11 14 1017.9 - 1.2 - - - - - - -
22/02:00pm 24.8 SE 11 18 1018.1 - 1.0 - - - - - - -
22/01:30pm 23.8 SSE 8 15 1018.4 - 0.8 - - - - - - -
22/01:00pm 23.3 S 12 18 1018.9 - 0.8 - - - - - - -
22/12:30pm 22.2 S 17 21 1019.4 - 0.8 - - - - - - -
22/12:00pm 22.0 S 15 20 1019.7 - 0.8 - - - - - - -
22/11:30am 21.7 S 14 18 1020.2 - 0.8 - - - - - - -
22/11:01am 20.8 S 15 25 1020.5 - 0.8 - - - - - - -
22/11:00am 20.9 S 16 25 1020.5 - 0.8 - - - - - - -
22/10:30am 22.0 S 19 22 1020.5 - 0.2 - - - - - - -
22/10:00am 22.0 S 19 25 1020.5 - 0.2 - - - - - - -
22/09:30am 22.4 S 19 24 1020.5 - 0.0 - - - - - - -
22/09:00am 22.7 S 13 23 1020.4 - 0.0 - - - - - - -
22/08:30am 22.7 S 19 24 1020.2 - 0.0 - - - - - - -
22/08:00am 22.1 S 17 21 1020.0 - 0.0 - - - - - - -
22/07:30am 21.5 S 19 22 1019.9 - 0.0 - - - - - - -
22/07:00am 22.0 S 18 21 1019.2 - 0.0 - - - - - - -
22/06:30am 22.1 S 14 19 1018.7 - 0.0 - - - - - - -
22/06:00am 22.0 S 8 11 1018.2 - 0.0 - - - - - - -
22/05:30am 22.2 S 18 29 1018.0 - 0.0 - - - - - - -
22/05:28am 22.0 S 16 26 1018.0 - 0.0 - - - - - - -
22/05:00am 22.5 S 13 17 1017.9 - 0.0 - - - - - - -

Other Formats:

Comma delimited format used in spreadsheet applications
http://www.bom.gov.au/fwo/IDQ60701/IDQ60701.94295.axf

JavaScript Object Notation format (JSON) in row-major order
http://www.bom.gov.au/fwo/IDQ60701/IDQ60701.94295.json